createdAt,value
2022-08-19T07:13:25.098Z,101204.34
2022-08-19T07:18:28.211Z,101208.19
2022-08-19T07:23:31.519Z,101213.63
2022-08-19T07:28:34.336Z,101210.72
2022-08-19T07:33:37.677Z,101216.72
2022-08-19T07:38:42.467Z,101224.41
2022-08-19T07:43:47.927Z,101217.50
2022-08-19T07:48:51.279Z,101211.63
2022-08-19T07:53:53.500Z,101219.66
2022-08-19T08:04:20.506Z,101214.38
2022-08-19T08:09:27.231Z,101231.88
2022-08-19T08:14:37.188Z,101242.22
2022-08-19T08:19:42.071Z,101248.47
2022-08-19T08:24:43.680Z,101245.78
2022-08-19T08:29:46.022Z,101247.00
2022-08-19T08:34:50.056Z,101241.97
2022-08-19T08:39:55.448Z,101254.91
2022-08-19T08:45:06.756Z,101255.75
2022-08-19T08:50:39.123Z,101260.00
2022-08-19T08:55:42.456Z,101265.97
2022-08-19T09:00:48.680Z,101264.16
2022-08-19T09:06:04.853Z,101261.59
2022-08-19T09:11:44.963Z,101270.38
2022-08-19T09:16:46.681Z,101274.13
2022-08-19T09:21:49.044Z,101276.69
2022-08-19T09:26:52.958Z,101285.31
2022-08-19T09:31:54.700Z,101279.00
2022-08-19T09:36:59.256Z,101284.97
2022-08-19T09:42:00.875Z,101277.78
2022-08-19T09:47:02.828Z,101282.75
2022-08-19T09:52:04.709Z,101297.28
2022-08-19T09:57:07.620Z,101300.31
2022-08-19T10:02:11.321Z,101288.94
2022-08-19T10:07:13.098Z,101293.19
2022-08-19T10:12:17.882Z,101292.81
2022-08-19T10:17:26.340Z,101294.94
2022-08-19T10:22:29.142Z,101307.38
2022-08-19T10:27:32.971Z,101301.38
2022-08-19T10:32:35.008Z,101298.34
2022-08-19T10:37:49.800Z,101304.13
2022-08-19T10:42:58.865Z,101308.22
2022-08-19T10:48:00.413Z,101301.34
2022-08-19T10:53:09.678Z,101302.84
2022-08-19T10:58:14.387Z,101294.72
2022-08-19T11:03:15.970Z,101296.75
2022-08-19T11:08:23.093Z,101301.50
2022-08-19T11:13:26.204Z,101302.44
2022-08-19T11:18:28.098Z,101303.16
2022-08-19T11:23:29.796Z,101298.59
2022-08-19T11:28:31.440Z,101293.66
2022-08-19T11:33:33.755Z,101297.00
